createdAt,value
2022-11-12T00:04:39.048Z,6.50
2022-11-12T00:09:22.496Z,6.50
2022-11-12T00:14:06.164Z,6.50
2022-11-12T00:18:51.152Z,6.50
2022-11-12T00:23:34.642Z,6.50
2022-11-12T00:28:38.701Z,6.60
2022-11-12T00:33:42.988Z,6.50
2022-11-12T00:38:47.981Z,6.60
2022-11-12T00:43:51.490Z,6.60
2022-11-12T00:48:55.100Z,6.60
2022-11-12T00:54:00.106Z,6.50
2022-11-12T00:58:44.293Z,6.60
2022-11-12T01:03:29.890Z,6.70
2022-11-12T01:08:13.711Z,6.70
2022-11-12T01:12:58.525Z,6.80
2022-11-12T01:17:41.986Z,6.80
2022-11-12T01:22:25.979Z,6.80
2022-11-12T01:27:09.493Z,6.90
2022-11-12T01:31:54.433Z,6.90
2022-11-12T01:36:40.854Z,6.90
2022-11-12T01:41:26.756Z,6.90
2022-11-12T01:46:18.473Z,7.00
2022-11-12T01:51:06.463Z,7.00
2022-11-12T01:55:50.501Z,7.00
2022-11-12T02:00:33.956Z,7.00
2022-11-12T02:05:18.961Z,7.00
2022-11-12T02:10:05.732Z,6.90
2022-11-12T02:14:49.220Z,6.90
2022-11-12T02:19:32.658Z,6.80
2022-11-12T02:24:38.143Z,6.80
2022-11-12T02:29:21.704Z,6.80
2022-11-12T02:34:05.430Z,6.80
2022-11-12T02:38:48.850Z,6.80
2022-11-12T02:43:33.664Z,6.70
2022-11-12T02:48:19.344Z,6.60
2022-11-12T02:53:02.896Z,6.60
2022-11-12T02:57:46.322Z,6.70
2022-11-12T03:02:31.166Z,6.70
2022-11-12T03:07:14.878Z,6.70
2022-11-12T03:11:58.402Z,6.70
2022-11-12T03:16:41.832Z,6.70
2022-11-12T03:21:26.711Z,6.60
2022-11-12T03:26:10.191Z,6.50
2022-11-12T03:30:57.845Z,6.40
2022-11-12T03:35:41.635Z,6.40
2022-11-12T03:40:27.108Z,6.30
2022-11-12T03:45:10.722Z,6.30
2022-11-12T03:49:54.124Z,6.20
2022-11-12T03:54:37.547Z,6.20
2022-11-12T03:59:22.340Z,6.20
2022-11-12T04:04:05.971Z,6.20
2022-11-12T04:08:48.607Z,6.20
2022-11-12T04:13:32.118Z,6.30
2022-11-12T04:18:33.860Z,6.40
2022-11-12T04:23:17.260Z,6.40
2022-11-12T04:28:00.676Z,6.20
2022-11-12T04:32:49.547Z,6.20
2022-11-12T04:37:45.462Z,6.20
2022-11-12T04:42:46.069Z,6.20
2022-11-12T04:47:31.087Z,6.20
2022-11-12T04:52:14.590Z,6.30
2022-11-12T04:56:59.670Z,6.30
2022-11-12T05:01:43.314Z,6.40
2022-11-12T05:06:44.299Z,6.40
2022-11-12T05:11:27.880Z,6.50
2022-11-12T05:16:12.739Z,6.40
2022-11-12T05:20:56.114Z,6.40
2022-11-12T05:25:39.665Z,6.40
2022-11-12T05:30:23.184Z,6.40
2022-11-12T05:35:08.967Z,6.50
2022-11-12T05:39:52.593Z,6.40
2022-11-12T05:44:36.358Z,6.30
2022-11-12T05:49:19.952Z,6.20
2022-11-12T05:54:05.184Z,6.10
2022-11-12T05:58:48.670Z,6.20
2022-11-12T06:03:32.472Z,6.20
2022-11-12T06:08:15.991Z,6.20
2022-11-12T06:13:01.053Z,6.20
2022-11-12T06:17:44.645Z,6.20
2022-11-12T06:22:28.101Z,6.20
2022-11-12T06:27:11.532Z,6.20
2022-11-12T06:31:56.429Z,6.10
2022-11-12T06:36:40.559Z,6.20
2022-11-12T06:41:24.092Z,6.30
2022-11-12T06:46:09.788Z,6.30
2022-11-12T06:50:54.616Z,6.20
2022-11-12T06:55:38.697Z,6.10
2022-11-12T07:00:22.411Z,6.20
2022-11-12T07:05:06.266Z,6.30
2022-11-12T07:09:51.208Z,6.10
2022-11-12T07:14:34.623Z,6.10
2022-11-12T07:19:18.042Z,6.00
2022-11-12T07:24:01.489Z,6.00
2022-11-12T07:28:46.808Z,6.00
2022-11-12T07:33:30.823Z,6.10
2022-11-12T07:38:14.319Z,5.90
2022-11-12T07:43:00.223Z,6.10
2022-11-12T07:47:45.055Z,6.30
2022-11-12T07:52:28.487Z,6.20
2022-11-12T07:57:12.113Z,6.30
2022-11-12T08:01:55.704Z,6.20
2022-11-12T08:06:40.700Z,5.90
2022-11-12T08:11:24.931Z,5.90
2022-11-12T08:16:09.291Z,6.00
2022-11-12T08:20:53.099Z,6.30
2022-11-12T08:25:38.211Z,6.60
2022-11-12T08:30:21.672Z,6.70
2022-11-12T08:35:05.528Z,6.90
2022-11-12T08:39:48.988Z,7.10
2022-11-12T08:44:33.949Z,7.20
2022-11-12T08:49:17.540Z,7.10
2022-11-12T08:54:01.270Z,7.10
2022-11-12T08:58:44.816Z,7.00
2022-11-12T09:03:29.870Z,7.20
2022-11-12T09:08:15.683Z,7.40
2022-11-12T09:12:59.350Z,7.50
2022-11-12T09:17:42.948Z,7.60
2022-11-12T09:22:27.923Z,7.50
2022-11-12T09:27:11.423Z,7.50
2022-11-12T09:31:55.487Z,7.60
2022-11-12T09:36:40.240Z,7.70
2022-11-12T09:41:34.736Z,7.80
2022-11-12T09:46:29.486Z,7.90
2022-11-12T09:51:18.516Z,8.00
2022-11-12T09:56:06.733Z,8.00
2022-11-12T10:00:56.772Z,8.10
2022-11-12T10:05:48.956Z,8.10
2022-11-12T10:10:41.022Z,8.10
2022-11-12T10:15:56.566Z,8.10
2022-11-12T10:20:49.600Z,8.00
2022-11-12T10:25:34.213Z,7.80
2022-11-12T10:30:19.854Z,7.80
2022-11-12T10:35:03.329Z,7.70
2022-11-12T10:39:48.431Z,7.90
2022-11-12T10:44:32.003Z,8.10
2022-11-12T10:49:25.378Z,8.00
2022-11-12T10:54:29.234Z,7.80
2022-11-12T10:59:17.595Z,8.00
2022-11-12T11:04:01.113Z,8.10
2022-11-12T11:08:46.904Z,8.10
2022-11-12T11:13:30.347Z,8.10
2022-11-12T11:18:15.782Z,8.10
2022-11-12T11:23:04.719Z,8.10
2022-11-12T11:28:00.986Z,8.20
2022-11-12T11:33:04.884Z,8.30
2022-11-12T11:38:01.766Z,8.40
2022-11-12T11:42:58.284Z,8.20
2022-11-12T11:48:01.329Z,8.20
2022-11-12T11:52:56.164Z,8.30
2022-11-12T11:57:46.291Z,8.30
2022-11-12T12:02:47.734Z,8.70
2022-11-12T12:07:39.007Z,8.90
2022-11-12T12:12:43.573Z,9.20
2022-11-12T12:17:38.507Z,9.50
2022-11-12T12:22:31.581Z,9.70
2022-11-12T12:27:17.760Z,9.60
2022-11-12T12:32:12.035Z,9.50
2022-11-12T12:37:02.520Z,9.50
2022-11-12T12:41:54.122Z,9.40
2022-11-12T12:46:43.879Z,9.20
2022-11-12T12:51:31.063Z,9.10
2022-11-12T12:56:49.367Z,9.00
2022-11-12T13:01:35.524Z,8.80
2022-11-12T13:06:27.614Z,8.80
2022-11-12T13:11:52.783Z,8.90
2022-11-12T13:16:58.390Z,9.10
2022-11-12T13:21:45.286Z,9.20
2022-11-12T13:26:53.894Z,9.20
2022-11-12T13:31:37.688Z,9.30
2022-11-12T13:36:31.280Z,9.20
2022-11-12T13:41:19.652Z,9.30
2022-11-12T13:46:26.566Z,9.20
2022-11-12T13:51:16.626Z,9.10
2022-11-12T13:56:00.719Z,9.00
2022-11-12T14:00:53.443Z,9.00
2022-11-12T14:05:39.567Z,8.80
2022-11-12T14:10:34.370Z,8.80
2022-11-12T14:15:33.239Z,8.80
2022-11-12T14:20:29.231Z,8.60
2022-11-12T14:25:19.512Z,8.60
2022-11-12T14:30:12.531Z,8.70
2022-11-12T14:34:56.070Z,8.80
2022-11-12T14:39:43.285Z,8.80
2022-11-12T14:44:34.019Z,8.70
2022-11-12T14:49:22.921Z,8.50
2022-11-12T14:54:08.750Z,8.50
2022-11-12T14:58:53.770Z,8.40
2022-11-12T15:03:38.742Z,8.40
2022-11-12T15:08:34.856Z,8.30
2022-11-12T15:13:20.792Z,8.20
2022-11-12T15:18:07.398Z,8.30
2022-11-12T15:22:54.141Z,8.10
2022-11-12T15:27:40.229Z,8.10
2022-11-12T15:32:35.365Z,8.10
2022-11-12T15:37:26.827Z,8.20
2022-11-12T15:42:18.724Z,8.10
2022-11-12T15:47:03.155Z,8.00
2022-11-12T15:51:46.877Z,7.90
2022-11-12T15:56:31.099Z,7.70
2022-11-12T16:01:16.105Z,7.60
2022-11-12T16:06:05.547Z,7.70
2022-11-12T16:10:52.312Z,7.70
2022-11-12T16:15:36.283Z,7.70
2022-11-12T16:20:24.033Z,7.60
2022-11-12T16:25:08.390Z,7.70
2022-11-12T16:29:52.120Z,7.70
2022-11-12T16:34:35.612Z,7.70
2022-11-12T16:39:20.709Z,7.70
2022-11-12T16:44:04.499Z,7.80
2022-11-12T16:48:48.053Z,7.80
2022-11-12T16:53:32.004Z,7.70
2022-11-12T16:58:17.364Z,7.70
2022-11-12T17:03:01.218Z,7.70
2022-11-12T17:07:45.076Z,7.70
2022-11-12T17:12:29.372Z,7.70
2022-11-12T17:17:15.216Z,7.80
2022-11-12T17:22:00.221Z,7.80
2022-11-12T17:26:44.865Z,7.80
2022-11-12T17:31:29.062Z,7.70
2022-11-12T17:36:17.693Z,7.70
2022-11-12T17:41:01.340Z,7.70
2022-11-12T17:45:51.144Z,7.70
2022-11-12T17:50:35.250Z,7.70
2022-11-12T17:55:21.429Z,7.70
2022-11-12T18:00:06.241Z,7.70
2022-11-12T18:04:52.862Z,7.70
2022-11-12T18:09:37.546Z,7.60
2022-11-12T18:14:23.802Z,7.60
2022-11-12T18:19:11.168Z,7.60
2022-11-12T18:23:55.220Z,7.60
2022-11-12T18:28:39.863Z,7.60
2022-11-12T18:33:25.819Z,7.60
2022-11-12T18:38:10.695Z,7.50
2022-11-12T18:42:56.002Z,7.50
2022-11-12T18:47:40.591Z,7.40
2022-11-12T18:52:26.999Z,7.40
2022-11-12T18:57:12.426Z,7.50
2022-11-12T19:01:57.460Z,7.40
2022-11-12T19:06:44.742Z,7.40
2022-11-12T19:11:30.687Z,7.30
2022-11-12T19:16:17.479Z,7.30
2022-11-12T19:21:07.138Z,7.40
2022-11-12T19:25:51.329Z,7.30
2022-11-12T19:30:36.894Z,7.20
2022-11-12T19:35:21.655Z,7.20
2022-11-12T19:40:06.497Z,7.20
2022-11-12T19:44:51.346Z,7.10
2022-11-12T19:49:36.520Z,7.10
2022-11-12T19:54:20.253Z,7.00
2022-11-12T19:59:06.440Z,7.00
2022-11-12T20:03:50.386Z,7.00
2022-11-12T20:08:36.750Z,7.00
2022-11-12T20:13:20.791Z,6.90
2022-11-12T20:18:04.847Z,7.00
2022-11-12T20:22:48.817Z,6.80
2022-11-12T20:27:34.910Z,6.70
2022-11-12T20:32:19.478Z,6.70
2022-11-12T20:43:17.495Z,6.80
2022-11-12T20:48:02.357Z,6.80
2022-11-12T20:52:46.313Z,6.70
2022-11-12T20:57:30.647Z,6.70
2022-11-12T21:02:16.023Z,6.70
2022-11-12T21:07:05.114Z,6.80
2022-11-12T21:11:50.384Z,6.80
2022-11-12T21:16:34.859Z,6.60
2022-11-12T21:21:21.593Z,6.60
2022-11-12T21:26:07.667Z,6.60
2022-11-12T21:30:53.308Z,6.70
2022-11-12T21:35:37.606Z,6.60
2022-11-12T21:40:25.284Z,6.70
2022-11-12T21:45:09.832Z,6.70
2022-11-12T21:49:54.505Z,6.60
2022-11-12T21:54:38.052Z,6.60
2022-11-12T21:59:23.092Z,6.60
2022-11-12T22:04:08.467Z,6.60
2022-11-12T22:08:53.604Z,6.70
2022-11-12T22:13:37.452Z,6.80
2022-11-12T22:18:22.457Z,6.70
2022-11-12T22:23:06.357Z,6.70
2022-11-12T22:27:51.077Z,6.60
2022-11-12T22:32:34.543Z,6.60
2022-11-12T22:37:19.440Z,6.50
2022-11-12T22:42:03.025Z,6.60
2022-11-12T22:46:46.587Z,6.70
2022-11-12T22:51:32.374Z,6.60
2022-11-12T22:56:18.267Z,6.60
